sensor_id;sensor_type;location;lat;lon;timestamp;P1;durP1;ratioP1;P2;durP2;ratioP2
1174;SDS011;576;48.418;10.074;2024-03-07T00:01:16;3.80;;;2.80;;
1174;SDS011;576;48.418;10.074;2024-03-07T00:03:44;3.93;;;3.53;;
1174;SDS011;576;48.418;10.074;2024-03-07T00:06:12;3.10;;;2.90;;
1174;SDS011;576;48.418;10.074;2024-03-07T00:08:40;3.40;;;3.10;;
1174;SDS011;576;48.418;10.074;2024-03-07T00:11:10;2.80;;;2.60;;
1174;SDS011;576;48.418;10.074;2024-03-07T00:13:38;3.47;;;2.90;;
1174;SDS011;576;48.418;10.074;2024-03-07T00:16:06;4.57;;;3.63;;
1174;SDS011;576;48.418;10.074;2024-03-07T00:18:35;2.90;;;2.67;;
1174;SDS011;576;48.418;10.074;2024-03-07T00:21:03;2.60;;;2.40;;
1174;SDS011;576;48.418;10.074;2024-03-07T00:23:32;2.70;;;2.50;;
1174;SDS011;576;48.418;10.074;2024-03-07T00:26:00;2.70;;;2.50;;
1174;SDS011;576;48.418;10.074;2024-03-07T00:28:30;2.70;;;2.50;;
1174;SDS011;576;48.418;10.074;2024-03-07T00:31:05;2.80;;;2.60;;
1174;SDS011;576;48.418;10.074;2024-03-07T00:33:35;2.90;;;2.60;;
1174;SDS011;576;48.418;10.074;2024-03-07T00:36:23;3.83;;;2.50;;
1174;SDS011;576;48.418;10.074;2024-03-07T00:38:52;3.00;;;2.70;;
1174;SDS011;576;48.418;10.074;2024-03-07T00:41:20;2.80;;;2.47;;
1174;SDS011;576;48.418;10.074;2024-03-07T00:43:50;2.93;;;2.43;;
1174;SDS011;576;48.418;10.074;2024-03-07T00:46:18;3.30;;;2.60;;
1174;SDS011;576;48.418;10.074;2024-03-07T00:48:47;2.80;;;2.37;;
1174;SDS011;576;48.418;10.074;2024-03-07T00:51:15;3.57;;;3.27;;
1174;SDS011;576;48.418;10.074;2024-03-07T00:53:43;2.90;;;2.70;;
1174;SDS011;576;48.418;10.074;2024-03-07T00:56:13;2.30;;;2.10;;
1174;SDS011;576;48.418;10.074;2024-03-07T00:58:42;3.10;;;2.40;;
1174;SDS011;576;48.418;10.074;2024-03-07T01:01:11;3.10;;;2.33;;
1174;SDS011;576;48.418;10.074;2024-03-07T01:03:40;3.60;;;2.70;;
1174;SDS011;576;48.418;10.074;2024-03-07T01:06:08;2.33;;;2.13;;
1174;SDS011;576;48.418;10.074;2024-03-07T01:08:37;3.17;;;2.90;;
1174;SDS011;576;48.418;10.074;2024-03-07T01:11:05;3.23;;;2.43;;
1174;SDS011;576;48.418;10.074;2024-03-07T01:13:36;3.00;;;2.70;;
1174;SDS011;576;48.418;10.074;2024-03-07T01:16:05;2.50;;;2.30;;
1174;SDS011;576;48.418;10.074;2024-03-07T01:18:35;2.20;;;2.10;;
1174;SDS011;576;48.418;10.074;2024-03-07T01:21:04;2.70;;;2.50;;
1174;SDS011;576;48.418;10.074;2024-03-07T01:23:34;2.60;;;2.17;;
1174;SDS011;576;48.418;10.074;2024-03-07T01:26:03;2.50;;;2.30;;
1174;SDS011;576;48.418;10.074;2024-03-07T01:28:31;2.03;;;1.80;;
1174;SDS011;576;48.418;10.074;2024-03-07T01:30:59;2.70;;;2.50;;
1174;SDS011;576;48.418;10.074;2024-03-07T01:33:27;2.53;;;2.30;;
1174;SDS011;576;48.418;10.074;2024-03-07T01:35:57;3.10;;;2.50;;
1174;SDS011;576;48.418;10.074;2024-03-07T01:38:25;2.67;;;2.47;;
1174;SDS011;576;48.418;10.074;2024-03-07T01:40:54;2.93;;;2.63;;
1174;SDS011;576;48.418;10.074;2024-03-07T01:43:22;3.00;;;2.80;;
1174;SDS011;576;48.418;10.074;2024-03-07T01:45:50;2.17;;;1.97;;
1174;SDS011;576;48.418;10.074;2024-03-07T01:48:25;2.70;;;2.50;;
1174;SDS011;576;48.418;10.074;2024-03-07T01:50:55;3.63;;;2.80;;
1174;SDS011;576;48.418;10.074;2024-03-07T01:53:25;2.60;;;2.40;;
1174;SDS011;576;48.418;10.074;2024-03-07T01:55:56;2.50;;;2.40;;
1174;SDS011;576;48.418;10.074;2024-03-07T01:58:26;2.60;;;2.40;;
1174;SDS011;576;48.418;10.074;2024-03-07T02:00:55;2.77;;;2.57;;
1174;SDS011;576;48.418;10.074;2024-03-07T02:03:24;3.47;;;3.17;;
1174;SDS011;576;48.418;10.074;2024-03-07T02:05:52;2.77;;;2.47;;
1174;SDS011;576;48.418;10.074;2024-03-07T02:08:22;2.63;;;2.43;;
1174;SDS011;576;48.418;10.074;2024-03-07T02:10:51;3.10;;;2.80;;
1174;SDS011;576;48.418;10.074;2024-03-07T02:13:19;2.67;;;2.47;;
1174;SDS011;576;48.418;10.074;2024-03-07T02:15:47;3.27;;;3.00;;
1174;SDS011;576;48.418;10.074;2024-03-07T02:18:15;4.87;;;3.50;;
1174;SDS011;576;48.418;10.074;2024-03-07T02:20:45;3.17;;;2.97;;
1174;SDS011;576;48.418;10.074;2024-03-07T02:23:14;3.10;;;2.90;;
1174;SDS011;576;48.418;10.074;2024-03-07T02:25:43;3.10;;;2.90;;
1174;SDS011;576;48.418;10.074;2024-03-07T02:28:11;3.50;;;3.20;;
1174;SDS011;576;48.418;10.074;2024-03-07T02:30:39;3.23;;;3.03;;
1174;SDS011;576;48.418;10.074;2024-03-07T02:33:07;3.70;;;3.40;;
1174;SDS011;576;48.418;10.074;2024-03-07T02:35:36;3.00;;;2.80;;
1174;SDS011;576;48.418;10.074;2024-03-07T02:38:06;3.27;;;2.97;;
1174;SDS011;576;48.418;10.074;2024-03-07T02:40:36;4.30;;;3.60;;
1174;SDS011;576;48.418;10.074;2024-03-07T02:43:04;3.73;;;3.43;;
1174;SDS011;576;48.418;10.074;2024-03-07T02:45:33;5.30;;;3.20;;
1174;SDS011;576;48.418;10.074;2024-03-07T02:48:02;3.70;;;3.23;;
1174;SDS011;576;48.418;10.074;2024-03-07T02:50:32;3.27;;;3.03;;
1174;SDS011;576;48.418;10.074;2024-03-07T02:53:00;3.90;;;3.60;;
1174;SDS011;576;48.418;10.074;2024-03-07T02:55:32;4.13;;;3.73;;
1174;SDS011;576;48.418;10.074;2024-03-07T02:58:00;4.87;;;4.40;;
1174;SDS011;576;48.418;10.074;2024-03-07T03:00:28;3.93;;;3.70;;
1174;SDS011;576;48.418;10.074;2024-03-07T03:02:57;3.53;;;3.23;;
1174;SDS011;576;48.418;10.074;2024-03-07T03:05:25;4.13;;;3.73;;
1174;SDS011;576;48.418;10.074;2024-03-07T03:07:53;3.93;;;3.53;;
1174;SDS011;576;48.418;10.074;2024-03-07T03:10:22;4.20;;;3.90;;
1174;SDS011;576;48.418;10.074;2024-03-07T03:12:57;4.27;;;3.87;;
1174;SDS011;576;48.418;10.074;2024-03-07T03:15:26;4.53;;;4.13;;
1174;SDS011;576;48.418;10.074;2024-03-07T03:17:55;5.17;;;4.67;;
1174;SDS011;576;48.418;10.074;2024-03-07T03:20:26;4.23;;;3.83;;
1174;SDS011;576;48.418;10.074;2024-03-07T03:23:01;3.77;;;3.53;;
1174;SDS011;576;48.418;10.074;2024-03-07T03:25:33;4.63;;;4.23;;
1174;SDS011;576;48.418;10.074;2024-03-07T03:28:03;5.13;;;4.67;;
1174;SDS011;576;48.418;10.074;2024-03-07T03:30:32;4.40;;;4.00;;
1174;SDS011;576;48.418;10.074;2024-03-07T03:33:01;5.23;;;4.83;;
1174;SDS011;576;48.418;10.074;2024-03-07T03:35:29;4.30;;;3.90;;
1174;SDS011;576;48.418;10.074;2024-03-07T03:37:57;5.07;;;4.57;;
1174;SDS011;576;48.418;10.074;2024-03-07T03:40:25;5.50;;;5.10;;
1174;SDS011;576;48.418;10.074;2024-03-07T03:42:54;4.83;;;4.50;;
1174;SDS011;576;48.418;10.074;2024-03-07T03:45:24;4.37;;;3.97;;
1174;SDS011;576;48.418;10.074;2024-03-07T03:47:53;4.83;;;4.43;;
1174;SDS011;576;48.418;10.074;2024-03-07T03:50:21;5.13;;;4.63;;
1174;SDS011;576;48.418;10.074;2024-03-07T03:52:50;4.30;;;3.90;;
1174;SDS011;576;48.418;10.074;2024-03-07T03:55:19;4.33;;;4.03;;
1174;SDS011;576;48.418;10.074;2024-03-07T03:57:48;4.80;;;4.30;;
1174;SDS011;576;48.418;10.074;2024-03-07T04:00:17;5.47;;;4.97;;
1174;SDS011;576;48.418;10.074;2024-03-07T04:02:51;4.80;;;4.40;;
1174;SDS011;576;48.418;10.074;2024-03-07T04:05:19;4.60;;;4.20;;
1174;SDS011;576;48.418;10.074;2024-03-07T04:07:49;5.37;;;4.87;;
1174;SDS011;576;48.418;10.074;2024-03-07T04:10:17;4.90;;;4.40;;
1174;SDS011;576;48.418;10.074;2024-03-07T04:12:46;4.70;;;4.37;;
1174;SDS011;576;48.418;10.074;2024-03-07T04:15:14;5.07;;;4.67;;
1174;SDS011;576;48.418;10.074;2024-03-07T04:17:45;4.90;;;4.50;;
1174;SDS011;576;48.418;10.074;2024-03-07T04:20:16;4.60;;;4.30;;
1174;SDS011;576;48.418;10.074;2024-03-07T04:22:46;6.03;;;5.50;;
1174;SDS011;576;48.418;10.074;2024-03-07T04:25:16;4.60;;;4.20;;
1174;SDS011;576;48.418;10.074;2024-03-07T04:27:44;5.13;;;4.70;;
1174;SDS011;576;48.418;10.074;2024-03-07T04:30:13;4.70;;;4.30;;
1174;SDS011;576;48.418;10.074;2024-03-07T04:32:43;5.50;;;5.10;;
1174;SDS011;576;48.418;10.074;2024-03-07T04:35:12;5.20;;;4.73;;
1174;SDS011;576;48.418;10.074;2024-03-07T04:37:45;4.73;;;4.33;;
1174;SDS011;576;48.418;10.074;2024-03-07T04:40:14;6.13;;;5.63;;
1174;SDS011;576;48.418;10.074;2024-03-07T04:42:44;5.60;;;5.20;;
1174;SDS011;576;48.418;10.074;2024-03-07T04:45:15;5.87;;;5.37;;
1174;SDS011;576;48.418;10.074;2024-03-07T04:47:44;5.90;;;4.57;;
1174;SDS011;576;48.418;10.074;2024-03-07T04:50:13;5.77;;;5.10;;
1174;SDS011;576;48.418;10.074;2024-03-07T04:52:47;5.57;;;5.07;;
1174;SDS011;576;48.418;10.074;2024-03-07T04:55:16;5.50;;;5.10;;
1174;SDS011;576;48.418;10.074;2024-03-07T04:57:45;5.97;;;5.47;;
1174;SDS011;576;48.418;10.074;2024-03-07T05:00:14;5.53;;;5.13;;
1174;SDS011;576;48.418;10.074;2024-03-07T05:02:47;5.70;;;5.30;;
1174;SDS011;576;48.418;10.074;2024-03-07T05:05:17;5.60;;;5.10;;
1174;SDS011;576;48.418;10.074;2024-03-07T05:07:51;6.07;;;5.67;;
1174;SDS011;576;48.418;10.074;2024-03-07T05:10:19;5.77;;;5.23;;
1174;SDS011;576;48.418;10.074;2024-03-07T05:12:48;6.03;;;5.53;;
1174;SDS011;576;48.418;10.074;2024-03-07T05:15:17;5.50;;;5.10;;
1174;SDS011;576;48.418;10.074;2024-03-07T05:17:45;6.40;;;5.50;;
1174;SDS011;576;48.418;10.074;2024-03-07T05:20:13;5.93;;;5.43;;
1174;SDS011;576;48.418;10.074;2024-03-07T05:22:43;5.53;;;5.03;;
1174;SDS011;576;48.418;10.074;2024-03-07T05:25:19;6.53;;;6.03;;
1174;SDS011;576;48.418;10.074;2024-03-07T05:27:48;5.97;;;5.47;;
1174;SDS011;576;48.418;10.074;2024-03-07T05:30:18;5.53;;;5.10;;
1174;SDS011;576;48.418;10.074;2024-03-07T05:32:48;5.10;;;4.70;;
1174;SDS011;576;48.418;10.074;2024-03-07T05:35:17;5.80;;;5.40;;
1174;SDS011;576;48.418;10.074;2024-03-07T05:37:48;5.90;;;5.40;;
1174;SDS011;576;48.418;10.074;2024-03-07T05:40:19;5.50;;;5.10;;
1174;SDS011;576;48.418;10.074;2024-03-07T05:42:48;6.37;;;5.87;;
1174;SDS011;576;48.418;10.074;2024-03-07T05:45:16;6.07;;;5.57;;
1174;SDS011;576;48.418;10.074;2024-03-07T05:47:45;5.13;;;4.73;;
1174;SDS011;576;48.418;10.074;2024-03-07T05:50:16;5.90;;;5.40;;
1174;SDS011;576;48.418;10.074;2024-03-07T05:52:45;6.30;;;5.70;;
1174;SDS011;576;48.418;10.074;2024-03-07T05:55:15;5.50;;;5.10;;
1174;SDS011;576;48.418;10.074;2024-03-07T05:57:47;6.20;;;5.70;;
1174;SDS011;576;48.418;10.074;2024-03-07T06:00:15;5.97;;;5.53;;
1174;SDS011;576;48.418;10.074;2024-03-07T06:02:54;5.97;;;5.40;;
1174;SDS011;576;48.418;10.074;2024-03-07T06:05:23;6.23;;;5.73;;
1174;SDS011;576;48.418;10.074;2024-03-07T06:07:52;5.60;;;5.10;;
1174;SDS011;576;48.418;10.074;2024-03-07T06:10:20;4.87;;;4.47;;
1174;SDS011;576;48.418;10.074;2024-03-07T06:12:52;4.80;;;4.40;;
1174;SDS011;576;48.418;10.074;2024-03-07T06:15:23;5.37;;;4.97;;
1174;SDS011;576;48.418;10.074;2024-03-07T06:17:52;6.13;;;5.53;;
1174;SDS011;576;48.418;10.074;2024-03-07T06:20:20;5.47;;;5.03;;
1174;SDS011;576;48.418;10.074;2024-03-07T06:22:51;5.37;;;4.97;;
1174;SDS011;576;48.418;10.074;2024-03-07T06:25:20;5.70;;;5.30;;
1174;SDS011;576;48.418;10.074;2024-03-07T06:28:02;6.97;;;6.27;;
1174;SDS011;576;48.418;10.074;2024-03-07T06:30:36;5.87;;;5.37;;
1174;SDS011;576;48.418;10.074;2024-03-07T06:33:06;4.90;;;4.50;;
1174;SDS011;576;48.418;10.074;2024-03-07T06:35:34;9.50;;;6.50;;
1174;SDS011;576;48.418;10.074;2024-03-07T06:38:04;6.93;;;5.87;;
1174;SDS011;576;48.418;10.074;2024-03-07T06:40:33;6.77;;;6.07;;
1174;SDS011;576;48.418;10.074;2024-03-07T06:43:02;6.20;;;5.70;;
1174;SDS011;576;48.418;10.074;2024-03-07T06:45:33;6.30;;;5.80;;
1174;SDS011;576;48.418;10.074;2024-03-07T06:48:03;6.60;;;6.10;;
1174;SDS011;576;48.418;10.074;2024-03-07T06:50:34;6.13;;;5.63;;
1174;SDS011;576;48.418;10.074;2024-03-07T06:53:04;5.40;;;5.00;;
1174;SDS011;576;48.418;10.074;2024-03-07T06:55:35;5.80;;;5.30;;
1174;SDS011;576;48.418;10.074;2024-03-07T06:58:06;5.50;;;5.00;;
1174;SDS011;576;48.418;10.074;2024-03-07T07:00:34;6.10;;;5.60;;
1174;SDS011;576;48.418;10.074;2024-03-07T07:03:04;6.03;;;5.53;;
1174;SDS011;576;48.418;10.074;2024-03-07T07:05:33;6.10;;;5.50;;
1174;SDS011;576;48.418;10.074;2024-03-07T07:08:03;6.00;;;5.50;;
1174;SDS011;576;48.418;10.074;2024-03-07T07:10:33;5.73;;;5.23;;
1174;SDS011;576;48.418;10.074;2024-03-07T07:13:02;6.90;;;5.63;;
1174;SDS011;576;48.418;10.074;2024-03-07T07:15:33;6.50;;;6.00;;
1174;SDS011;576;48.418;10.074;2024-03-07T07:18:03;5.60;;;5.10;;
1174;SDS011;576;48.418;10.074;2024-03-07T07:20:34;6.90;;;6.30;;
1174;SDS011;576;48.418;10.074;2024-03-07T07:23:02;5.97;;;5.47;;
1174;SDS011;576;48.418;10.074;2024-03-07T07:25:31;5.87;;;5.30;;
1174;SDS011;576;48.418;10.074;2024-03-07T07:28:00;6.17;;;5.67;;
1174;SDS011;576;48.418;10.074;2024-03-07T07:30:33;5.80;;;5.40;;
1174;SDS011;576;48.418;10.074;2024-03-07T07:33:01;6.47;;;5.50;;
1174;SDS011;576;48.418;10.074;2024-03-07T07:35:30;5.60;;;5.00;;
1174;SDS011;576;48.418;10.074;2024-03-07T07:37:59;5.50;;;5.10;;
1174;SDS011;576;48.418;10.074;2024-03-07T07:40:27;5.47;;;5.07;;
1174;SDS011;576;48.418;10.074;2024-03-07T07:42:57;5.90;;;5.40;;
1174;SDS011;576;48.418;10.074;2024-03-07T07:45:27;5.50;;;5.00;;
1174;SDS011;576;48.418;10.074;2024-03-07T07:47:57;5.07;;;4.60;;
1174;SDS011;576;48.418;10.074;2024-03-07T07:50:26;6.40;;;5.80;;
1174;SDS011;576;48.418;10.074;2024-03-07T07:52:55;7.50;;;5.40;;
1174;SDS011;576;48.418;10.074;2024-03-07T07:55:25;5.23;;;4.77;;
1174;SDS011;576;48.418;10.074;2024-03-07T07:57:54;6.33;;;5.17;;
1174;SDS011;576;48.418;10.074;2024-03-07T08:00:24;6.27;;;5.67;;
1174;SDS011;576;48.418;10.074;2024-03-07T08:02:57;5.30;;;4.90;;
1174;SDS011;576;48.418;10.074;2024-03-07T08:05:28;5.20;;;4.70;;
1174;SDS011;576;48.418;10.074;2024-03-07T08:07:58;5.30;;;4.50;;
1174;SDS011;576;48.418;10.074;2024-03-07T08:10:29;7.00;;;4.97;;
1174;SDS011;576;48.418;10.074;2024-03-07T08:12:58;5.57;;;5.07;;
1174;SDS011;576;48.418;10.074;2024-03-07T08:15:28;5.00;;;4.60;;
1174;SDS011;576;48.418;10.074;2024-03-07T08:17:59;4.80;;;4.40;;
1174;SDS011;576;48.418;10.074;2024-03-07T08:20:28;4.80;;;4.40;;
1174;SDS011;576;48.418;10.074;2024-03-07T08:22:57;5.23;;;4.83;;
1174;SDS011;576;48.418;10.074;2024-03-07T08:25:26;5.57;;;5.07;;
1174;SDS011;576;48.418;10.074;2024-03-07T08:27:56;5.57;;;4.93;;
1174;SDS011;576;48.418;10.074;2024-03-07T08:30:25;6.10;;;5.00;;
1174;SDS011;576;48.418;10.074;2024-03-07T08:32:56;5.03;;;4.60;;
1174;SDS011;576;48.418;10.074;2024-03-07T08:35:27;5.70;;;4.63;;
1174;SDS011;576;48.418;10.074;2024-03-07T08:37:56;5.90;;;4.70;;
1174;SDS011;576;48.418;10.074;2024-03-07T08:40:25;4.83;;;4.43;;
1174;SDS011;576;48.418;10.074;2024-03-07T08:42:58;5.10;;;4.70;;
1174;SDS011;576;48.418;10.074;2024-03-07T08:45:27;5.00;;;4.50;;
1174;SDS011;576;48.418;10.074;2024-03-07T08:48:01;4.70;;;4.30;;
1174;SDS011;576;48.418;10.074;2024-03-07T08:50:34;5.03;;;4.53;;
1174;SDS011;576;48.418;10.074;2024-03-07T08:53:04;5.23;;;4.73;;
1174;SDS011;576;48.418;10.074;2024-03-07T08:55:33;5.13;;;4.83;;
1174;SDS011;576;48.418;10.074;2024-03-07T08:58:03;4.60;;;4.20;;
1174;SDS011;576;48.418;10.074;2024-03-07T09:00:34;5.20;;;4.80;;
1174;SDS011;576;48.418;10.074;2024-03-07T09:03:05;4.30;;;4.00;;
1174;SDS011;576;48.418;10.074;2024-03-07T09:05:41;4.90;;;4.50;;
1174;SDS011;576;48.418;10.074;2024-03-07T09:08:09;4.77;;;4.33;;
1174;SDS011;576;48.418;10.074;2024-03-07T09:10:38;4.37;;;4.03;;
1174;SDS011;576;48.418;10.074;2024-03-07T09:13:08;4.67;;;4.20;;
1174;SDS011;576;48.418;10.074;2024-03-07T09:15:36;5.30;;;4.80;;
1174;SDS011;576;48.418;10.074;2024-03-07T09:18:04;5.23;;;4.90;;
1174;SDS011;576;48.418;10.074;2024-03-07T09:20:35;5.00;;;4.23;;
1174;SDS011;576;48.418;10.074;2024-03-07T09:23:05;5.00;;;4.53;;
1174;SDS011;576;48.418;10.074;2024-03-07T09:25:34;4.30;;;3.90;;
1174;SDS011;576;48.418;10.074;2024-03-07T09:28:03;4.27;;;3.90;;
1174;SDS011;576;48.418;10.074;2024-03-07T09:30:33;4.57;;;4.17;;
1174;SDS011;576;48.418;10.074;2024-03-07T09:33:05;7.43;;;5.63;;
1174;SDS011;576;48.418;10.074;2024-03-07T09:35:37;6.13;;;5.53;;
1174;SDS011;576;48.418;10.074;2024-03-07T09:38:07;6.30;;;5.70;;
1174;SDS011;576;48.418;10.074;2024-03-07T09:40:35;6.73;;;6.13;;
1174;SDS011;576;48.418;10.074;2024-03-07T09:43:04;6.20;;;5.70;;
1174;SDS011;576;48.418;10.074;2024-03-07T09:45:34;7.13;;;6.53;;
1174;SDS011;576;48.418;10.074;2024-03-07T09:48:04;7.70;;;6.10;;
1174;SDS011;576;48.418;10.074;2024-03-07T09:50:35;6.50;;;5.90;;
1174;SDS011;576;48.418;10.074;2024-03-07T09:53:04;6.13;;;5.53;;
1174;SDS011;576;48.418;10.074;2024-03-07T09:55:36;9.33;;;5.80;;
1174;SDS011;576;48.418;10.074;2024-03-07T09:58:05;7.63;;;6.53;;
1174;SDS011;576;48.418;10.074;2024-03-07T10:00:34;7.03;;;5.93;;
1174;SDS011;576;48.418;10.074;2024-03-07T10:03:07;7.20;;;6.30;;
1174;SDS011;576;48.418;10.074;2024-03-07T10:05:39;7.20;;;6.57;;
1174;SDS011;576;48.418;10.074;2024-03-07T10:08:08;11.30;;;8.30;;
1174;SDS011;576;48.418;10.074;2024-03-07T10:10:40;8.40;;;6.57;;
1174;SDS011;576;48.418;10.074;2024-03-07T10:13:08;9.17;;;7.90;;
1174;SDS011;576;48.418;10.074;2024-03-07T10:15:36;7.90;;;7.10;;
1174;SDS011;576;48.418;10.074;2024-03-07T10:18:06;8.57;;;7.10;;
1174;SDS011;576;48.418;10.074;2024-03-07T10:20:36;8.70;;;7.70;;
1174;SDS011;576;48.418;10.074;2024-03-07T10:23:06;9.63;;;7.70;;
1174;SDS011;576;48.418;10.074;2024-03-07T10:25:35;8.00;;;7.30;;
1174;SDS011;576;48.418;10.074;2024-03-07T10:28:06;7.33;;;6.67;;
1174;SDS011;576;48.418;10.074;2024-03-07T10:30:41;8.17;;;7.47;;
1174;SDS011;576;48.418;10.074;2024-03-07T10:33:11;7.83;;;7.13;;
1174;SDS011;576;48.418;10.074;2024-03-07T10:35:42;9.63;;;6.87;;
1174;SDS011;576;48.418;10.074;2024-03-07T10:38:10;7.90;;;7.10;;
1174;SDS011;576;48.418;10.074;2024-03-07T10:40:41;7.80;;;7.10;;
1174;SDS011;576;48.418;10.074;2024-03-07T10:43:11;8.23;;;7.43;;
1174;SDS011;576;48.418;10.074;2024-03-07T10:45:43;7.93;;;7.23;;
1174;SDS011;576;48.418;10.074;2024-03-07T10:48:16;7.83;;;7.13;;
1174;SDS011;576;48.418;10.074;2024-03-07T10:50:52;9.57;;;7.40;;
1174;SDS011;576;48.418;10.074;2024-03-07T10:53:35;8.97;;;8.20;;
1174;SDS011;576;48.418;10.074;2024-03-07T10:56:13;7.87;;;7.07;;
1174;SDS011;576;48.418;10.074;2024-03-07T10:58:57;8.10;;;7.30;;
1174;SDS011;576;48.418;10.074;2024-03-07T11:01:30;7.33;;;6.73;;
1174;SDS011;576;48.418;10.074;2024-03-07T11:04:00;9.47;;;8.67;;
1174;SDS011;576;48.418;10.074;2024-03-07T11:06:32;9.80;;;8.90;;
1174;SDS011;576;48.418;10.074;2024-03-07T11:09:03;8.80;;;8.00;;
1174;SDS011;576;48.418;10.074;2024-03-07T11:11:38;8.33;;;7.63;;
1174;SDS011;576;48.418;10.074;2024-03-07T11:14:10;7.70;;;6.87;;
1174;SDS011;576;48.418;10.074;2024-03-07T11:16:42;8.40;;;7.70;;
1174;SDS011;576;48.418;10.074;2024-03-07T11:19:20;9.17;;;8.37;;
1174;SDS011;576;48.418;10.074;2024-03-07T11:21:54;11.70;;;8.60;;
1174;SDS011;576;48.418;10.074;2024-03-07T11:24:23;10.60;;;7.53;;
1174;SDS011;576;48.418;10.074;2024-03-07T11:26:52;8.20;;;7.50;;
1174;SDS011;576;48.418;10.074;2024-03-07T11:29:41;8.80;;;7.90;;
1174;SDS011;576;48.418;10.074;2024-03-07T11:32:11;8.27;;;7.57;;
1174;SDS011;576;48.418;10.074;2024-03-07T11:34:41;8.17;;;7.53;;
1174;SDS011;576;48.418;10.074;2024-03-07T11:37:16;9.13;;;8.23;;
1174;SDS011;576;48.418;10.074;2024-03-07T11:39:49;8.60;;;7.70;;
1174;SDS011;576;48.418;10.074;2024-03-07T11:42:23;8.30;;;7.70;;
1174;SDS011;576;48.418;10.074;2024-03-07T11:45:00;8.40;;;7.37;;
1174;SDS011;576;48.418;10.074;2024-03-07T11:47:34;8.47;;;7.57;;
1174;SDS011;576;48.418;10.074;2024-03-07T11:50:05;9.30;;;8.40;;
1174;SDS011;576;48.418;10.074;2024-03-07T11:52:39;8.60;;;7.83;;
1174;SDS011;576;48.418;10.074;2024-03-07T11:55:08;8.07;;;7.37;;
1174;SDS011;576;48.418;10.074;2024-03-07T11:57:38;8.30;;;7.50;;
1174;SDS011;576;48.418;10.074;2024-03-07T12:00:12;10.27;;;8.20;;
1174;SDS011;576;48.418;10.074;2024-03-07T12:02:43;8.90;;;8.17;;
1174;SDS011;576;48.418;10.074;2024-03-07T12:05:11;9.23;;;8.43;;
1174;SDS011;576;48.418;10.074;2024-03-07T12:07:43;8.23;;;7.43;;
1174;SDS011;576;48.418;10.074;2024-03-07T12:10:11;9.03;;;8.13;;
1174;SDS011;576;48.418;10.074;2024-03-07T12:12:39;8.50;;;7.80;;
1174;SDS011;576;48.418;10.074;2024-03-07T12:15:11;9.27;;;8.37;;
1174;SDS011;576;48.418;10.074;2024-03-07T12:17:47;9.33;;;8.13;;
1174;SDS011;576;48.418;10.074;2024-03-07T12:20:17;9.43;;;8.40;;
1174;SDS011;576;48.418;10.074;2024-03-07T12:22:58;8.80;;;8.00;;
1174;SDS011;576;48.418;10.074;2024-03-07T12:25:29;9.67;;;8.63;;
1174;SDS011;576;48.418;10.074;2024-03-07T12:27:59;9.23;;;8.43;;
1174;SDS011;576;48.418;10.074;2024-03-07T12:30:33;10.00;;;9.00;;
1174;SDS011;576;48.418;10.074;2024-03-07T12:33:04;9.67;;;8.60;;
1174;SDS011;576;48.418;10.074;2024-03-07T12:35:34;10.40;;;8.83;;
1174;SDS011;576;48.418;10.074;2024-03-07T12:38:03;8.80;;;8.10;;
1174;SDS011;576;48.418;10.074;2024-03-07T12:40:31;9.87;;;8.67;;
1174;SDS011;576;48.418;10.074;2024-03-07T12:43:12;8.60;;;7.90;;
1174;SDS011;576;48.418;10.074;2024-03-07T12:45:47;8.60;;;7.70;;
1174;SDS011;576;48.418;10.074;2024-03-07T12:48:16;9.43;;;8.63;;
1174;SDS011;576;48.418;10.074;2024-03-07T12:50:46;9.07;;;8.17;;
1174;SDS011;576;48.418;10.074;2024-03-07T12:53:20;9.57;;;8.23;;
1174;SDS011;576;48.418;10.074;2024-03-07T12:55:48;9.00;;;8.20;;
1174;SDS011;576;48.418;10.074;2024-03-07T12:58:18;8.93;;;7.97;;
1174;SDS011;576;48.418;10.074;2024-03-07T13:00:50;11.10;;;9.57;;
1174;SDS011;576;48.418;10.074;2024-03-07T13:03:18;11.03;;;8.23;;
1174;SDS011;576;48.418;10.074;2024-03-07T13:05:46;8.80;;;8.00;;
1174;SDS011;576;48.418;10.074;2024-03-07T13:08:15;8.90;;;8.03;;
1174;SDS011;576;48.418;10.074;2024-03-07T13:10:43;9.10;;;7.67;;
1174;SDS011;576;48.418;10.074;2024-03-07T13:13:16;9.67;;;8.50;;
1174;SDS011;576;48.418;10.074;2024-03-07T13:15:44;8.80;;;8.00;;
1174;SDS011;576;48.418;10.074;2024-03-07T13:18:15;8.40;;;7.63;;
1174;SDS011;576;48.418;10.074;2024-03-07T13:20:44;9.43;;;7.83;;
1174;SDS011;576;48.418;10.074;2024-03-07T13:23:12;9.80;;;7.70;;
1174;SDS011;576;48.418;10.074;2024-03-07T13:25:41;8.97;;;8.17;;
1174;SDS011;576;48.418;10.074;2024-03-07T13:28:11;9.10;;;8.20;;
1174;SDS011;576;48.418;10.074;2024-03-07T13:30:44;8.80;;;8.07;;
1174;SDS011;576;48.418;10.074;2024-03-07T13:33:17;9.40;;;8.50;;
1174;SDS011;576;48.418;10.074;2024-03-07T13:35:45;8.77;;;7.97;;
1174;SDS011;576;48.418;10.074;2024-03-07T13:38:13;8.43;;;7.60;;
1174;SDS011;576;48.418;10.074;2024-03-07T13:40:42;8.03;;;7.33;;
1174;SDS011;576;48.418;10.074;2024-03-07T13:43:10;8.37;;;7.67;;
1174;SDS011;576;48.418;10.074;2024-03-07T13:45:38;7.67;;;6.97;;
1174;SDS011;576;48.418;10.074;2024-03-07T13:48:08;9.40;;;8.40;;
1174;SDS011;576;48.418;10.074;2024-03-07T13:50:41;7.93;;;7.23;;
1174;SDS011;576;48.418;10.074;2024-03-07T13:53:24;10.47;;;7.80;;
1174;SDS011;576;48.418;10.074;2024-03-07T13:56:07;11.17;;;7.37;;
1174;SDS011;576;48.418;10.074;2024-03-07T14:02:26;7.40;;;6.80;;
1174;SDS011;576;48.418;10.074;2024-03-07T14:05:34;8.93;;;7.60;;
1174;SDS011;576;48.418;10.074;2024-03-07T14:08:28;7.83;;;7.03;;
1174;SDS011;576;48.418;10.074;2024-03-07T14:11:41;7.50;;;6.80;;
1174;SDS011;576;48.418;10.074;2024-03-07T14:14:49;8.80;;;7.27;;
1174;SDS011;576;48.418;10.074;2024-03-07T14:17:57;7.27;;;6.67;;
1174;SDS011;576;48.418;10.074;2024-03-07T14:24:00;7.07;;;6.50;;
1174;SDS011;576;48.418;10.074;2024-03-07T14:27:03;7.67;;;6.87;;
1174;SDS011;576;48.418;10.074;2024-03-07T14:29:47;8.10;;;7.40;;
1174;SDS011;576;48.418;10.074;2024-03-07T14:32:20;7.70;;;7.00;;
1174;SDS011;576;48.418;10.074;2024-03-07T14:34:55;7.90;;;7.20;;
1174;SDS011;576;48.418;10.074;2024-03-07T14:37:33;8.70;;;7.80;;
1174;SDS011;576;48.418;10.074;2024-03-07T14:40:07;10.80;;;7.33;;
1174;SDS011;576;48.418;10.074;2024-03-07T14:42:39;12.00;;;6.83;;
1174;SDS011;576;48.418;10.074;2024-03-07T14:45:11;8.40;;;7.40;;
1174;SDS011;576;48.418;10.074;2024-03-07T14:47:43;7.97;;;7.03;;
1174;SDS011;576;48.418;10.074;2024-03-07T14:50:14;12.53;;;7.60;;
1174;SDS011;576;48.418;10.074;2024-03-07T14:52:48;7.83;;;7.13;;
1174;SDS011;576;48.418;10.074;2024-03-07T14:55:16;7.70;;;6.50;;
1174;SDS011;576;48.418;10.074;2024-03-07T14:57:45;11.47;;;7.40;;
1174;SDS011;576;48.418;10.074;2024-03-07T15:00:14;8.83;;;7.27;;
1174;SDS011;576;48.418;10.074;2024-03-07T15:02:49;10.47;;;6.70;;
1174;SDS011;576;48.418;10.074;2024-03-07T15:05:17;7.97;;;7.13;;
1174;SDS011;576;48.418;10.074;2024-03-07T15:07:47;8.57;;;7.77;;
1174;SDS011;576;48.418;10.074;2024-03-07T15:10:17;11.13;;;7.43;;
1174;SDS011;576;48.418;10.074;2024-03-07T15:12:47;8.73;;;7.93;;
1174;SDS011;576;48.418;10.074;2024-03-07T15:15:15;10.00;;;9.00;;
1174;SDS011;576;48.418;10.074;2024-03-07T15:17:46;12.30;;;9.27;;
1174;SDS011;576;48.418;10.074;2024-03-07T15:20:14;8.50;;;7.13;;
1174;SDS011;576;48.418;10.074;2024-03-07T15:22:52;8.53;;;7.30;;
1174;SDS011;576;48.418;10.074;2024-03-07T15:25:21;9.40;;;7.10;;
1174;SDS011;576;48.418;10.074;2024-03-07T15:27:51;8.00;;;7.30;;
1174;SDS011;576;48.418;10.074;2024-03-07T15:30:23;7.63;;;7.03;;
1174;SDS011;576;48.418;10.074;2024-03-07T15:32:58;9.43;;;7.40;;
1174;SDS011;576;48.418;10.074;2024-03-07T15:35:27;7.40;;;6.80;;
1174;SDS011;576;48.418;10.074;2024-03-07T15:37:58;7.93;;;7.07;;
1174;SDS011;576;48.418;10.074;2024-03-07T15:40:27;7.00;;;6.50;;
1174;SDS011;576;48.418;10.074;2024-03-07T15:42:55;6.97;;;6.40;;
1174;SDS011;576;48.418;10.074;2024-03-07T15:45:24;9.53;;;7.97;;